sensor_id;sensor_type;location;lat;lon;timestamp;temperature;humidity
25092;DHT22;13082;52.374;4.946;2023-06-10T00:00:46;20.90;99.90
25092;DHT22;13082;52.374;4.946;2023-06-10T00:03:11;21.00;99.90
25092;DHT22;13082;52.374;4.946;2023-06-10T00:05:38;21.00;99.90
25092;DHT22;13082;52.374;4.946;2023-06-10T00:08:05;20.90;99.90
25092;DHT22;13082;52.374;4.946;2023-06-10T00:10:33;20.90;99.90
25092;DHT22;13082;52.374;4.946;2023-06-10T00:13:01;20.90;99.90
25092;DHT22;13082;52.374;4.946;2023-06-10T00:15:27;20.90;99.90
25092;DHT22;13082;52.374;4.946;2023-06-10T00:17:53;20.90;99.90
25092;DHT22;13082;52.374;4.946;2023-06-10T00:20:20;20.90;99.90
25092;DHT22;13082;52.374;4.946;2023-06-10T00:22:49;20.90;99.90
25092;DHT22;13082;52.374;4.946;2023-06-10T00:25:15;20.90;99.90
25092;DHT22;13082;52.374;4.946;2023-06-10T00:27:40;20.80;99.90
25092;DHT22;13082;52.374;4.946;2023-06-10T00:30:07;20.80;99.90
25092;DHT22;13082;52.374;4.946;2023-06-10T00:32:36;20.70;99.90
25092;DHT22;13082;52.374;4.946;2023-06-10T00:35:03;20.70;99.90
25092;DHT22;13082;52.374;4.946;2023-06-10T00:37:28;20.60;99.90
25092;DHT22;13082;52.374;4.946;2023-06-10T00:39:55;20.60;99.90
25092;DHT22;13082;52.374;4.946;2023-06-10T00:42:20;20.50;99.90
25092;DHT22;13082;52.374;4.946;2023-06-10T00:44:47;20.40;99.90
25092;DHT22;13082;52.374;4.946;2023-06-10T00:47:13;20.40;99.90
25092;DHT22;13082;52.374;4.946;2023-06-10T00:49:40;20.40;99.90
25092;DHT22;13082;52.374;4.946;2023-06-10T00:52:07;20.30;99.90
25092;DHT22;13082;52.374;4.946;2023-06-10T00:54:33;20.20;99.90
25092;DHT22;13082;52.374;4.946;2023-06-10T00:57:01;20.20;99.90
25092;DHT22;13082;52.374;4.946;2023-06-10T00:59:28;20.30;99.90
25092;DHT22;13082;52.374;4.946;2023-06-10T01:01:56;20.30;99.90
25092;DHT22;13082;52.374;4.946;2023-06-10T01:04:22;20.30;99.90
25092;DHT22;13082;52.374;4.946;2023-06-10T01:07:20;20.30;99.90
25092;DHT22;13082;52.374;4.946;2023-06-10T01:09:56;20.20;99.90
25092;DHT22;13082;52.374;4.946;2023-06-10T01:12:46;20.20;99.90
25092;DHT22;13082;52.374;4.946;2023-06-10T01:15:16;20.20;99.90
25092;DHT22;13082;52.374;4.946;2023-06-10T01:17:56;20.10;99.90
25092;DHT22;13082;52.374;4.946;2023-06-10T01:20:24;20.10;99.90
25092;DHT22;13082;52.374;4.946;2023-06-10T01:22:49;20.10;99.90
25092;DHT22;13082;52.374;4.946;2023-06-10T01:25:16;20.20;99.90
25092;DHT22;13082;52.374;4.946;2023-06-10T01:27:44;20.20;99.90
25092;DHT22;13082;52.374;4.946;2023-06-10T01:30:15;20.10;99.90
25092;DHT22;13082;52.374;4.946;2023-06-10T01:32:48;20.00;99.90
25092;DHT22;13082;52.374;4.946;2023-06-10T01:35:15;19.90;99.90
25092;DHT22;13082;52.374;4.946;2023-06-10T01:37:44;19.90;99.90
25092;DHT22;13082;52.374;4.946;2023-06-10T01:40:11;19.90;99.90
25092;DHT22;13082;52.374;4.946;2023-06-10T01:42:38;19.90;99.90
25092;DHT22;13082;52.374;4.946;2023-06-10T01:45:04;19.80;99.90
25092;DHT22;13082;52.374;4.946;2023-06-10T01:47:30;19.80;99.90
25092;DHT22;13082;52.374;4.946;2023-06-10T01:49:55;19.70;99.90
25092;DHT22;13082;52.374;4.946;2023-06-10T01:52:21;19.70;99.90
25092;DHT22;13082;52.374;4.946;2023-06-10T01:54:47;19.60;99.90
25092;DHT22;13082;52.374;4.946;2023-06-10T01:57:12;19.60;99.90
25092;DHT22;13082;52.374;4.946;2023-06-10T01:59:38;19.70;99.90
25092;DHT22;13082;52.374;4.946;2023-06-10T02:02:05;19.70;99.90
25092;DHT22;13082;52.374;4.946;2023-06-10T02:04:31;19.70;99.90
25092;DHT22;13082;52.374;4.946;2023-06-10T02:06:56;19.70;99.90
25092;DHT22;13082;52.374;4.946;2023-06-10T02:09:22;19.70;99.90
25092;DHT22;13082;52.374;4.946;2023-06-10T02:11:48;19.70;99.90
25092;DHT22;13082;52.374;4.946;2023-06-10T02:14:14;19.70;99.90
25092;DHT22;13082;52.374;4.946;2023-06-10T02:16:40;19.70;99.90
25092;DHT22;13082;52.374;4.946;2023-06-10T02:19:06;19.60;99.90
25092;DHT22;13082;52.374;4.946;2023-06-10T02:21:32;19.50;99.90
25092;DHT22;13082;52.374;4.946;2023-06-10T02:23:59;19.40;99.90
25092;DHT22;13082;52.374;4.946;2023-06-10T02:26:25;19.40;99.90
25092;DHT22;13082;52.374;4.946;2023-06-10T02:28:51;19.50;99.90
25092;DHT22;13082;52.374;4.946;2023-06-10T02:31:17;19.50;99.90
25092;DHT22;13082;52.374;4.946;2023-06-10T02:33:43;19.40;99.90
25092;DHT22;13082;52.374;4.946;2023-06-10T02:36:10;19.40;99.90
25092;DHT22;13082;52.374;4.946;2023-06-10T02:38:39;19.40;99.90
25092;DHT22;13082;52.374;4.946;2023-06-10T02:41:06;19.40;99.90
25092;DHT22;13082;52.374;4.946;2023-06-10T02:43:31;19.40;99.90
25092;DHT22;13082;52.374;4.946;2023-06-10T02:45:57;19.40;99.90
25092;DHT22;13082;52.374;4.946;2023-06-10T02:48:27;19.40;99.90
25092;DHT22;13082;52.374;4.946;2023-06-10T02:50:53;19.40;99.90
25092;DHT22;13082;52.374;4.946;2023-06-10T02:53:18;19.40;99.90
25092;DHT22;13082;52.374;4.946;2023-06-10T02:55:44;19.30;99.90
25092;DHT22;13082;52.374;4.946;2023-06-10T02:58:10;19.30;99.90
25092;DHT22;13082;52.374;4.946;2023-06-10T03:00:35;19.20;99.90
25092;DHT22;13082;52.374;4.946;2023-06-10T03:03:03;19.10;99.90
25092;DHT22;13082;52.374;4.946;2023-06-10T03:05:29;19.10;99.90
25092;DHT22;13082;52.374;4.946;2023-06-10T03:07:55;19.10;99.90
25092;DHT22;13082;52.374;4.946;2023-06-10T03:10:21;19.20;99.90
25092;DHT22;13082;52.374;4.946;2023-06-10T03:12:46;19.30;99.90
25092;DHT22;13082;52.374;4.946;2023-06-10T03:15:12;19.30;99.90
25092;DHT22;13082;52.374;4.946;2023-06-10T03:17:38;19.30;99.90
25092;DHT22;13082;52.374;4.946;2023-06-10T03:20:04;19.20;99.90
25092;DHT22;13082;52.374;4.946;2023-06-10T03:22:31;19.10;99.90
25092;DHT22;13082;52.374;4.946;2023-06-10T03:24:56;19.20;99.90
25092;DHT22;13082;52.374;4.946;2023-06-10T03:27:22;19.20;99.90
25092;DHT22;13082;52.374;4.946;2023-06-10T03:29:48;19.10;99.90
25092;DHT22;13082;52.374;4.946;2023-06-10T03:32:13;19.20;99.90
25092;DHT22;13082;52.374;4.946;2023-06-10T03:34:40;19.10;99.90
25092;DHT22;13082;52.374;4.946;2023-06-10T03:37:06;19.10;99.90
25092;DHT22;13082;52.374;4.946;2023-06-10T03:39:32;19.10;99.90
25092;DHT22;13082;52.374;4.946;2023-06-10T03:41:58;19.10;99.90
25092;DHT22;13082;52.374;4.946;2023-06-10T03:44:27;19.10;99.90
25092;DHT22;13082;52.374;4.946;2023-06-10T03:46:53;19.00;99.90
25092;DHT22;13082;52.374;4.946;2023-06-10T03:49:19;19.00;99.90
25092;DHT22;13082;52.374;4.946;2023-06-10T03:51:44;18.90;99.90
25092;DHT22;13082;52.374;4.946;2023-06-10T03:54:10;19.00;99.90
25092;DHT22;13082;52.374;4.946;2023-06-10T03:56:36;19.10;99.90
25092;DHT22;13082;52.374;4.946;2023-06-10T03:59:01;19.10;99.90
25092;DHT22;13082;52.374;4.946;2023-06-10T04:01:27;19.10;99.90
25092;DHT22;13082;52.374;4.946;2023-06-10T04:03:53;19.00;99.90
25092;DHT22;13082;52.374;4.946;2023-06-10T04:06:20;19.00;99.90
25092;DHT22;13082;52.374;4.946;2023-06-10T04:08:47;18.90;99.90
25092;DHT22;13082;52.374;4.946;2023-06-10T04:11:13;18.90;99.90
25092;DHT22;13082;52.374;4.946;2023-06-10T04:13:39;18.90;99.90
25092;DHT22;13082;52.374;4.946;2023-06-10T04:16:05;19.00;99.90
25092;DHT22;13082;52.374;4.946;2023-06-10T04:18:30;19.00;99.90
25092;DHT22;13082;52.374;4.946;2023-06-10T04:20:56;18.90;99.90
25092;DHT22;13082;52.374;4.946;2023-06-10T04:23:22;18.90;99.90
25092;DHT22;13082;52.374;4.946;2023-06-10T04:25:47;19.00;99.90
25092;DHT22;13082;52.374;4.946;2023-06-10T04:28:13;19.00;99.90
25092;DHT22;13082;52.374;4.946;2023-06-10T04:30:39;19.00;99.90
25092;DHT22;13082;52.374;4.946;2023-06-10T04:33:04;18.90;99.90
25092;DHT22;13082;52.374;4.946;2023-06-10T04:35:32;19.00;99.90
25092;DHT22;13082;52.374;4.946;2023-06-10T04:37:57;18.90;99.90
25092;DHT22;13082;52.374;4.946;2023-06-10T04:40:23;18.90;99.90
25092;DHT22;13082;52.374;4.946;2023-06-10T04:42:49;18.80;99.90
25092;DHT22;13082;52.374;4.946;2023-06-10T04:45:14;18.80;99.90
25092;DHT22;13082;52.374;4.946;2023-06-10T04:47:40;18.80;99.90
25092;DHT22;13082;52.374;4.946;2023-06-10T04:50:06;18.80;99.90
25092;DHT22;13082;52.374;4.946;2023-06-10T04:52:32;18.80;99.90
25092;DHT22;13082;52.374;4.946;2023-06-10T04:54:59;18.80;99.90
25092;DHT22;13082;52.374;4.946;2023-06-10T04:57:24;18.80;99.90
25092;DHT22;13082;52.374;4.946;2023-06-10T04:59:52;18.80;99.90
25092;DHT22;13082;52.374;4.946;2023-06-10T05:02:17;18.90;99.90
25092;DHT22;13082;52.374;4.946;2023-06-10T05:04:43;19.00;99.90
25092;DHT22;13082;52.374;4.946;2023-06-10T05:07:08;18.90;99.90
25092;DHT22;13082;52.374;4.946;2023-06-10T05:09:34;18.90;99.90
25092;DHT22;13082;52.374;4.946;2023-06-10T05:12:00;18.80;99.90
25092;DHT22;13082;52.374;4.946;2023-06-10T05:14:25;18.90;99.90
25092;DHT22;13082;52.374;4.946;2023-06-10T05:16:51;19.00;99.90
25092;DHT22;13082;52.374;4.946;2023-06-10T05:19:16;19.00;99.90
25092;DHT22;13082;52.374;4.946;2023-06-10T05:21:43;19.10;99.90
25092;DHT22;13082;52.374;4.946;2023-06-10T05:24:09;19.20;99.90
25092;DHT22;13082;52.374;4.946;2023-06-10T05:26:35;19.10;99.90
25092;DHT22;13082;52.374;4.946;2023-06-10T05:29:05;19.10;99.90
25092;DHT22;13082;52.374;4.946;2023-06-10T05:31:31;19.20;99.90
25092;DHT22;13082;52.374;4.946;2023-06-10T05:33:57;19.20;99.90
25092;DHT22;13082;52.374;4.946;2023-06-10T05:36:23;19.20;99.90
25092;DHT22;13082;52.374;4.946;2023-06-10T05:38:50;19.10;99.90
25092;DHT22;13082;52.374;4.946;2023-06-10T05:41:16;19.10;99.90
25092;DHT22;13082;52.374;4.946;2023-06-10T05:43:41;19.10;99.90
25092;DHT22;13082;52.374;4.946;2023-06-10T05:46:07;19.10;99.90
25092;DHT22;13082;52.374;4.946;2023-06-10T05:48:33;19.10;99.90
25092;DHT22;13082;52.374;4.946;2023-06-10T05:50:58;19.20;99.90
25092;DHT22;13082;52.374;4.946;2023-06-10T05:53:24;19.20;99.90
25092;DHT22;13082;52.374;4.946;2023-06-10T05:55:50;19.20;99.90
25092;DHT22;13082;52.374;4.946;2023-06-10T05:58:16;19.20;99.90
25092;DHT22;13082;52.374;4.946;2023-06-10T06:00:42;19.20;99.90
25092;DHT22;13082;52.374;4.946;2023-06-10T06:03:08;19.20;99.90
25092;DHT22;13082;52.374;4.946;2023-06-10T06:05:34;19.30;99.90
25092;DHT22;13082;52.374;4.946;2023-06-10T06:08:07;19.20;99.90
25092;DHT22;13082;52.374;4.946;2023-06-10T06:10:33;19.30;99.90
25092;DHT22;13082;52.374;4.946;2023-06-10T06:13:00;19.40;99.90
25092;DHT22;13082;52.374;4.946;2023-06-10T06:15:26;19.40;99.90
25092;DHT22;13082;52.374;4.946;2023-06-10T06:17:52;19.50;99.90
25092;DHT22;13082;52.374;4.946;2023-06-10T06:20:21;19.60;99.90
25092;DHT22;13082;52.374;4.946;2023-06-10T06:22:47;19.60;99.90
25092;DHT22;13082;52.374;4.946;2023-06-10T06:25:13;19.70;99.90
25092;DHT22;13082;52.374;4.946;2023-06-10T06:27:39;19.70;99.90
25092;DHT22;13082;52.374;4.946;2023-06-10T06:30:05;19.70;99.90
25092;DHT22;13082;52.374;4.946;2023-06-10T06:32:31;19.70;99.90
25092;DHT22;13082;52.374;4.946;2023-06-10T06:34:56;19.70;99.90
25092;DHT22;13082;52.374;4.946;2023-06-10T06:37:23;19.80;99.90
25092;DHT22;13082;52.374;4.946;2023-06-10T06:39:50;19.80;99.90
25092;DHT22;13082;52.374;4.946;2023-06-10T06:42:16;19.90;99.90
25092;DHT22;13082;52.374;4.946;2023-06-10T06:44:42;19.90;99.90
25092;DHT22;13082;52.374;4.946;2023-06-10T06:47:08;20.00;99.90
25092;DHT22;13082;52.374;4.946;2023-06-10T06:49:33;20.00;99.90
25092;DHT22;13082;52.374;4.946;2023-06-10T06:51:59;20.10;99.90
25092;DHT22;13082;52.374;4.946;2023-06-10T06:54:25;20.10;99.90
25092;DHT22;13082;52.374;4.946;2023-06-10T06:56:50;20.20;99.90
25092;DHT22;13082;52.374;4.946;2023-06-10T06:59:16;20.40;99.90
25092;DHT22;13082;52.374;4.946;2023-06-10T07:01:46;20.40;99.90
25092;DHT22;13082;52.374;4.946;2023-06-10T07:04:11;20.50;99.90
25092;DHT22;13082;52.374;4.946;2023-06-10T07:06:37;20.60;99.90
25092;DHT22;13082;52.374;4.946;2023-06-10T07:09:04;20.60;99.90
25092;DHT22;13082;52.374;4.946;2023-06-10T07:11:30;20.70;99.90
25092;DHT22;13082;52.374;4.946;2023-06-10T07:13:56;20.70;99.90
25092;DHT22;13082;52.374;4.946;2023-06-10T07:16:21;20.70;99.90
25092;DHT22;13082;52.374;4.946;2023-06-10T07:18:47;20.80;99.90
25092;DHT22;13082;52.374;4.946;2023-06-10T07:21:13;20.90;99.90
25092;DHT22;13082;52.374;4.946;2023-06-10T07:23:42;21.00;99.90
25092;DHT22;13082;52.374;4.946;2023-06-10T07:26:08;21.00;99.90
25092;DHT22;13082;52.374;4.946;2023-06-10T07:28:36;21.10;99.90
25092;DHT22;13082;52.374;4.946;2023-06-10T07:31:02;21.20;99.90
25092;DHT22;13082;52.374;4.946;2023-06-10T07:33:28;21.30;99.90
25092;DHT22;13082;52.374;4.946;2023-06-10T07:35:54;21.30;99.90
25092;DHT22;13082;52.374;4.946;2023-06-10T07:38:20;21.40;99.90
25092;DHT22;13082;52.374;4.946;2023-06-10T07:40:46;21.50;99.90
25092;DHT22;13082;52.374;4.946;2023-06-10T07:43:11;21.50;99.90
25092;DHT22;13082;52.374;4.946;2023-06-10T07:45:39;21.50;99.90
25092;DHT22;13082;52.374;4.946;2023-06-10T07:48:04;21.50;99.90
25092;DHT22;13082;52.374;4.946;2023-06-10T07:50:30;21.60;99.90
25092;DHT22;13082;52.374;4.946;2023-06-10T07:52:56;21.60;99.90
25092;DHT22;13082;52.374;4.946;2023-06-10T07:55:21;21.60;99.90
25092;DHT22;13082;52.374;4.946;2023-06-10T07:57:47;21.60;99.90
25092;DHT22;13082;52.374;4.946;2023-06-10T08:00:13;21.70;99.90
25092;DHT22;13082;52.374;4.946;2023-06-10T08:02:39;21.80;99.90
25092;DHT22;13082;52.374;4.946;2023-06-10T08:05:05;21.80;99.90
25092;DHT22;13082;52.374;4.946;2023-06-10T08:07:30;21.90;99.90
25092;DHT22;13082;52.374;4.946;2023-06-10T08:09:57;22.00;99.90
25092;DHT22;13082;52.374;4.946;2023-06-10T08:12:22;22.10;99.90
25092;DHT22;13082;52.374;4.946;2023-06-10T08:14:48;22.20;99.90
25092;DHT22;13082;52.374;4.946;2023-06-10T08:17:14;22.30;99.90
25092;DHT22;13082;52.374;4.946;2023-06-10T08:19:39;22.30;99.90
25092;DHT22;13082;52.374;4.946;2023-06-10T08:22:05;22.40;99.90
25092;DHT22;13082;52.374;4.946;2023-06-10T08:24:30;22.40;99.90
25092;DHT22;13082;52.374;4.946;2023-06-10T08:26:56;22.50;99.90
25092;DHT22;13082;52.374;4.946;2023-06-10T08:29:23;22.60;99.90
25092;DHT22;13082;52.374;4.946;2023-06-10T08:31:49;22.70;99.90
25092;DHT22;13082;52.374;4.946;2023-06-10T08:34:15;22.70;99.90
25092;DHT22;13082;52.374;4.946;2023-06-10T08:36:40;22.80;99.90
25092;DHT22;13082;52.374;4.946;2023-06-10T08:39:06;22.80;99.90
25092;DHT22;13082;52.374;4.946;2023-06-10T08:41:36;22.90;99.90
25092;DHT22;13082;52.374;4.946;2023-06-10T08:44:17;23.00;99.90
25092;DHT22;13082;52.374;4.946;2023-06-10T08:46:45;23.00;99.90
25092;DHT22;13082;52.374;4.946;2023-06-10T08:49:17;23.00;99.90
25092;DHT22;13082;52.374;4.946;2023-06-10T08:51:43;23.10;99.90
25092;DHT22;13082;52.374;4.946;2023-06-10T08:54:22;23.20;99.90
25092;DHT22;13082;52.374;4.946;2023-06-10T08:56:51;23.30;99.90
25092;DHT22;13082;52.374;4.946;2023-06-10T08:59:20;23.40;99.90
25092;DHT22;13082;52.374;4.946;2023-06-10T09:01:47;23.40;99.90
25092;DHT22;13082;52.374;4.946;2023-06-10T09:04:13;23.50;99.90
25092;DHT22;13082;52.374;4.946;2023-06-10T09:06:40;23.50;99.90
25092;DHT22;13082;52.374;4.946;2023-06-10T09:09:07;23.60;99.90
25092;DHT22;13082;52.374;4.946;2023-06-10T09:11:33;23.70;99.90
25092;DHT22;13082;52.374;4.946;2023-06-10T09:13:58;23.70;99.90
25092;DHT22;13082;52.374;4.946;2023-06-10T09:16:27;23.80;99.90
25092;DHT22;13082;52.374;4.946;2023-06-10T09:18:53;23.90;99.90
25092;DHT22;13082;52.374;4.946;2023-06-10T09:21:24;24.10;99.90
25092;DHT22;13082;52.374;4.946;2023-06-10T09:23:50;24.10;99.90
25092;DHT22;13082;52.374;4.946;2023-06-10T09:26:16;24.20;99.90
25092;DHT22;13082;52.374;4.946;2023-06-10T09:28:48;24.20;99.90
25092;DHT22;13082;52.374;4.946;2023-06-10T09:31:15;24.30;99.90
25092;DHT22;13082;52.374;4.946;2023-06-10T09:33:44;24.30;99.90
25092;DHT22;13082;52.374;4.946;2023-06-10T09:36:10;24.40;99.90
25092;DHT22;13082;52.374;4.946;2023-06-10T09:38:37;24.60;99.90
25092;DHT22;13082;52.374;4.946;2023-06-10T09:41:03;24.60;99.90
25092;DHT22;13082;52.374;4.946;2023-06-10T09:43:43;24.60;99.90
25092;DHT22;13082;52.374;4.946;2023-06-10T09:46:19;24.70;99.90
25092;DHT22;13082;52.374;4.946;2023-06-10T09:48:47;24.70;99.90
25092;DHT22;13082;52.374;4.946;2023-06-10T09:51:13;24.70;99.90
25092;DHT22;13082;52.374;4.946;2023-06-10T09:53:39;24.70;99.90
25092;DHT22;13082;52.374;4.946;2023-06-10T09:56:06;24.80;99.90
25092;DHT22;13082;52.374;4.946;2023-06-10T09:58:38;24.80;99.90
25092;DHT22;13082;52.374;4.946;2023-06-10T10:01:05;24.80;99.90
25092;DHT22;13082;52.374;4.946;2023-06-10T10:03:31;24.90;99.90
25092;DHT22;13082;52.374;4.946;2023-06-10T10:06:00;24.80;99.90
25092;DHT22;13082;52.374;4.946;2023-06-10T10:08:26;24.90;99.90
25092;DHT22;13082;52.374;4.946;2023-06-10T10:10:52;25.00;99.90
25092;DHT22;13082;52.374;4.946;2023-06-10T10:13:18;25.00;99.90
25092;DHT22;13082;52.374;4.946;2023-06-10T10:15:45;25.10;99.90
25092;DHT22;13082;52.374;4.946;2023-06-10T10:18:14;25.30;99.90
25092;DHT22;13082;52.374;4.946;2023-06-10T10:20:47;25.30;99.90
25092;DHT22;13082;52.374;4.946;2023-06-10T10:23:21;25.30;99.90
25092;DHT22;13082;52.374;4.946;2023-06-10T10:25:52;25.40;99.90
25092;DHT22;13082;52.374;4.946;2023-06-10T10:28:20;25.40;99.90
25092;DHT22;13082;52.374;4.946;2023-06-10T10:30:49;25.40;99.90
25092;DHT22;13082;52.374;4.946;2023-06-10T10:33:40;25.50;99.90
25092;DHT22;13082;52.374;4.946;2023-06-10T10:36:06;25.60;99.90
25092;DHT22;13082;52.374;4.946;2023-06-10T10:38:33;25.60;99.90
25092;DHT22;13082;52.374;4.946;2023-06-10T10:41:00;25.70;99.90
25092;DHT22;13082;52.374;4.946;2023-06-10T10:43:28;25.70;99.90
25092;DHT22;13082;52.374;4.946;2023-06-10T10:46:01;25.80;99.90
25092;DHT22;13082;52.374;4.946;2023-06-10T10:48:32;25.80;99.90
25092;DHT22;13082;52.374;4.946;2023-06-10T10:50:58;25.90;99.90
25092;DHT22;13082;52.374;4.946;2023-06-10T10:53:24;26.00;99.90
25092;DHT22;13082;52.374;4.946;2023-06-10T10:56:13;26.10;99.90
25092;DHT22;13082;52.374;4.946;2023-06-10T10:58:39;26.20;99.90
25092;DHT22;13082;52.374;4.946;2023-06-10T11:01:14;26.10;99.90
25092;DHT22;13082;52.374;4.946;2023-06-10T11:03:44;26.20;99.90
25092;DHT22;13082;52.374;4.946;2023-06-10T11:06:14;26.20;99.90
25092;DHT22;13082;52.374;4.946;2023-06-10T11:11:24;26.30;99.90
25092;DHT22;13082;52.374;4.946;2023-06-10T11:16:39;26.30;99.90
25092;DHT22;13082;52.374;4.946;2023-06-10T11:19:06;26.40;99.90
25092;DHT22;13082;52.374;4.946;2023-06-10T11:21:31;26.40;99.90
25092;DHT22;13082;52.374;4.946;2023-06-10T11:23:58;26.40;99.90
25092;DHT22;13082;52.374;4.946;2023-06-10T11:33:53;26.60;99.90
25092;DHT22;13082;52.374;4.946;2023-06-10T11:36:20;26.60;99.90
25092;DHT22;13082;52.374;4.946;2023-06-10T11:38:45;26.80;99.90
25092;DHT22;13082;52.374;4.946;2023-06-10T11:41:12;26.90;99.90
25092;DHT22;13082;52.374;4.946;2023-06-10T11:43:46;26.90;99.90
25092;DHT22;13082;52.374;4.946;2023-06-10T11:46:12;26.90;99.90
25092;DHT22;13082;52.374;4.946;2023-06-10T11:48:38;26.90;99.90
25092;DHT22;13082;52.374;4.946;2023-06-10T11:51:07;27.00;99.90
25092;DHT22;13082;52.374;4.946;2023-06-10T11:53:34;27.00;99.90
25092;DHT22;13082;52.374;4.946;2023-06-10T11:55:59;27.10;99.90
25092;DHT22;13082;52.374;4.946;2023-06-10T11:58:25;27.10;99.90
25092;DHT22;13082;52.374;4.946;2023-06-10T12:00:52;27.10;99.90
25092;DHT22;13082;52.374;4.946;2023-06-10T12:03:27;27.10;99.90
25092;DHT22;13082;52.374;4.946;2023-06-10T12:06:01;27.10;99.90
25092;DHT22;13082;52.374;4.946;2023-06-10T12:08:27;27.20;99.90
25092;DHT22;13082;52.374;4.946;2023-06-10T12:10:53;27.20;99.90
25092;DHT22;13082;52.374;4.946;2023-06-10T12:13:19;27.20;99.90
25092;DHT22;13082;52.374;4.946;2023-06-10T12:15:45;27.30;99.90
25092;DHT22;13082;52.374;4.946;2023-06-10T12:18:22;27.30;99.90
25092;DHT22;13082;52.374;4.946;2023-06-10T12:20:48;27.30;99.90
25092;DHT22;13082;52.374;4.946;2023-06-10T12:23:15;27.30;99.90
25092;DHT22;13082;52.374;4.946;2023-06-10T12:25:54;27.30;99.90
25092;DHT22;13082;52.374;4.946;2023-06-10T12:28:23;27.30;99.90
25092;DHT22;13082;52.374;4.946;2023-06-10T12:30:49;27.20;99.90
25092;DHT22;13082;52.374;4.946;2023-06-10T12:33:19;27.20;99.90
25092;DHT22;13082;52.374;4.946;2023-06-10T12:35:48;27.30;99.90
25092;DHT22;13082;52.374;4.946;2023-06-10T12:38:17;27.20;99.90
25092;DHT22;13082;52.374;4.946;2023-06-10T12:40:47;27.20;99.90
25092;DHT22;13082;52.374;4.946;2023-06-10T12:43:13;27.20;99.90
25092;DHT22;13082;52.374;4.946;2023-06-10T12:45:39;27.20;99.90
25092;DHT22;13082;52.374;4.946;2023-06-10T12:48:22;27.10;99.90
25092;DHT22;13082;52.374;4.946;2023-06-10T12:50:53;27.10;99.90
25092;DHT22;13082;52.374;4.946;2023-06-10T12:53:19;27.10;99.90
25092;DHT22;13082;52.374;4.946;2023-06-10T12:55:45;27.10;99.90
25092;DHT22;13082;52.374;4.946;2023-06-10T12:58:11;27.00;99.90
25092;DHT22;13082;52.374;4.946;2023-06-10T13:00:38;27.00;99.90
25092;DHT22;13082;52.374;4.946;2023-06-10T13:03:04;27.00;99.90
25092;DHT22;13082;52.374;4.946;2023-06-10T13:05:31;27.10;99.90
25092;DHT22;13082;52.374;4.946;2023-06-10T13:07:57;27.10;99.90
25092;DHT22;13082;52.374;4.946;2023-06-10T13:10:23;27.10;99.90
25092;DHT22;13082;52.374;4.946;2023-06-10T13:12:49;27.10;99.90
25092;DHT22;13082;52.374;4.946;2023-06-10T13:15:16;27.00;99.90
25092;DHT22;13082;52.374;4.946;2023-06-10T13:17:45;27.00;99.90
25092;DHT22;13082;52.374;4.946;2023-06-10T13:20:14;26.90;99.90
25092;DHT22;13082;52.374;4.946;2023-06-10T13:22:41;27.00;99.90
25092;DHT22;13082;52.374;4.946;2023-06-10T13:25:07;27.10;99.90
25092;DHT22;13082;52.374;4.946;2023-06-10T13:27:34;27.20;99.90
25092;DHT22;13082;52.374;4.946;2023-06-10T13:30:00;27.10;99.90
25092;DHT22;13082;52.374;4.946;2023-06-10T13:32:26;27.20;99.90
25092;DHT22;13082;52.374;4.946;2023-06-10T13:34:52;27.20;99.90
25092;DHT22;13082;52.374;4.946;2023-06-10T13:37:19;27.20;99.90
25092;DHT22;13082;52.374;4.946;2023-06-10T13:39:45;27.20;99.90
25092;DHT22;13082;52.374;4.946;2023-06-10T13:42:14;27.20;99.90
25092;DHT22;13082;52.374;4.946;2023-06-10T13:44:40;27.20;99.90
25092;DHT22;13082;52.374;4.946;2023-06-10T13:47:06;27.20;99.90
25092;DHT22;13082;52.374;4.946;2023-06-10T13:49:32;27.30;99.90
25092;DHT22;13082;52.374;4.946;2023-06-10T13:51:57;27.30;99.90
25092;DHT22;13082;52.374;4.946;2023-06-10T13:54:23;27.30;99.90
25092;DHT22;13082;52.374;4.946;2023-06-10T13:56:49;27.40;99.90
25092;DHT22;13082;52.374;4.946;2023-06-10T13:59:14;27.30;99.90
25092;DHT22;13082;52.374;4.946;2023-06-10T14:01:40;27.30;99.90
25092;DHT22;13082;52.374;4.946;2023-06-10T14:04:06;27.30;99.90
25092;DHT22;13082;52.374;4.946;2023-06-10T14:06:33;27.40;99.90
25092;DHT22;13082;52.374;4.946;2023-06-10T14:08:59;27.30;99.90
25092;DHT22;13082;52.374;4.946;2023-06-10T14:11:25;27.20;99.90
25092;DHT22;13082;52.374;4.946;2023-06-10T14:13:50;27.30;99.90
25092;DHT22;13082;52.374;4.946;2023-06-10T14:16:16;27.30;99.90
25092;DHT22;13082;52.374;4.946;2023-06-10T14:18:41;27.20;99.90
25092;DHT22;13082;52.374;4.946;2023-06-10T14:21:07;27.20;99.90
25092;DHT22;13082;52.374;4.946;2023-06-10T14:23:33;27.20;99.90
25092;DHT22;13082;52.374;4.946;2023-06-10T14:25:59;27.20;99.90
25092;DHT22;13082;52.374;4.946;2023-06-10T14:28:24;27.10;99.90
25092;DHT22;13082;52.374;4.946;2023-06-10T14:30:51;27.10;99.90
25092;DHT22;13082;52.374;4.946;2023-06-10T14:33:17;27.00;99.90
25092;DHT22;13082;52.374;4.946;2023-06-10T14:35:43;27.00;99.90
25092;DHT22;13082;52.374;4.946;2023-06-10T14:38:09;27.10;99.90
25092;DHT22;13082;52.374;4.946;2023-06-10T14:40:35;27.10;99.90
25092;DHT22;13082;52.374;4.946;2023-06-10T14:43:00;27.10;99.90
25092;DHT22;13082;52.374;4.946;2023-06-10T14:45:29;27.10;99.90
25092;DHT22;13082;52.374;4.946;2023-06-10T14:47:55;27.20;99.90
25092;DHT22;13082;52.374;4.946;2023-06-10T14:50:20;27.10;99.90
25092;DHT22;13082;52.374;4.946;2023-06-10T14:52:46;27.00;99.90
25092;DHT22;13082;52.374;4.946;2023-06-10T14:55:12;27.00;99.90
25092;DHT22;13082;52.374;4.946;2023-06-10T14:57:38;27.10;99.90
25092;DHT22;13082;52.374;4.946;2023-06-10T15:00:04;27.00;99.90
25092;DHT22;13082;52.374;4.946;2023-06-10T15:02:30;27.00;99.90
25092;DHT22;13082;52.374;4.946;2023-06-10T15:04:55;27.00;99.90
25092;DHT22;13082;52.374;4.946;2023-06-10T15:07:21;27.00;99.90
25092;DHT22;13082;52.374;4.946;2023-06-10T15:09:46;27.00;99.90
25092;DHT22;13082;52.374;4.946;2023-06-10T15:12:12;26.90;99.90
25092;DHT22;13082;52.374;4.946;2023-06-10T15:14:37;26.90;99.90
25092;DHT22;13082;52.374;4.946;2023-06-10T15:17:03;27.00;99.90
25092;DHT22;13082;52.374;4.946;2023-06-10T15:19:29;27.10;99.90
25092;DHT22;13082;52.374;4.946;2023-06-10T15:21:54;27.10;99.90
25092;DHT22;13082;52.374;4.946;2023-06-10T15:24:20;26.90;99.90
25092;DHT22;13082;52.374;4.946;2023-06-10T15:26:46;26.90;99.90
25092;DHT22;13082;52.374;4.946;2023-06-10T15:29:11;26.90;99.90
25092;DHT22;13082;52.374;4.946;2023-06-10T15:31:37;26.80;99.90
25092;DHT22;13082;52.374;4.946;2023-06-10T15:34:04;26.80;99.90
25092;DHT22;13082;52.374;4.946;2023-06-10T15:36:30;26.80;99.90
25092;DHT22;13082;52.374;4.946;2023-06-10T15:39:01;26.70;99.90
25092;DHT22;13082;52.374;4.946;2023-06-10T15:41:28;26.70;99.90